createdAt,value
2018-05-18T00:00:49.292Z,4.70
2018-05-18T00:03:16.846Z,4.40
2018-05-18T00:05:44.417Z,4.87
2018-05-18T00:08:12.764Z,4.97
2018-05-18T00:10:40.349Z,4.60
2018-05-18T00:13:07.918Z,5.27
2018-05-18T00:15:35.533Z,4.23
2018-05-18T00:18:03.072Z,5.13
2018-05-18T00:20:30.679Z,5.10
2018-05-18T00:22:58.257Z,5.13
2018-05-18T00:25:25.846Z,5.87
2018-05-18T00:27:53.418Z,5.83
2018-05-18T00:30:20.973Z,5.27
2018-05-18T00:32:48.743Z,5.33
2018-05-18T00:35:16.374Z,5.53
2018-05-18T00:37:43.837Z,5.87
2018-05-18T00:40:11.390Z,5.60
2018-05-18T00:42:38.928Z,5.37
2018-05-18T00:45:06.684Z,5.87
2018-05-18T00:47:34.972Z,6.17
2018-05-18T00:50:02.525Z,6.50
2018-05-18T00:52:30.063Z,6.00
2018-05-18T00:54:58.394Z,5.70
2018-05-18T00:57:25.908Z,5.93
2018-05-18T00:59:53.446Z,6.17
2018-05-18T01:02:21.804Z,6.60
2018-05-18T01:04:49.361Z,7.10
2018-05-18T01:07:16.925Z,6.40
2018-05-18T01:09:44.484Z,7.03
2018-05-18T01:12:12.058Z,6.70
2018-05-18T01:14:39.652Z,6.13
2018-05-18T01:17:07.211Z,6.30
2018-05-18T01:19:35.611Z,6.30
2018-05-18T01:22:03.136Z,6.43
2018-05-18T01:24:30.678Z,6.63
2018-05-18T01:26:58.997Z,6.37
2018-05-18T01:29:26.610Z,6.70
2018-05-18T01:31:54.152Z,7.53
2018-05-18T01:34:21.743Z,6.03
2018-05-18T01:36:50.052Z,6.80
2018-05-18T01:39:17.580Z,6.33
2018-05-18T01:41:45.884Z,7.17
2018-05-18T01:44:13.499Z,6.90
2018-05-18T01:46:41.102Z,6.93
2018-05-18T01:49:08.627Z,6.53
2018-05-18T01:51:36.965Z,7.77
2018-05-18T01:54:04.552Z,7.30
2018-05-18T01:56:32.018Z,7.13
2018-05-18T01:59:00.354Z,7.27
2018-05-18T02:01:27.891Z,7.40
2018-05-18T02:03:55.469Z,7.73
2018-05-18T02:06:23.009Z,7.17
2018-05-18T02:08:50.554Z,7.53
2018-05-18T02:11:18.096Z,7.33
2018-05-18T02:13:46.964Z,7.17
2018-05-18T02:16:14.584Z,7.57
2018-05-18T02:18:42.153Z,8.23
2018-05-18T02:21:09.696Z,8.10
2018-05-18T02:23:37.250Z,8.20
2018-05-18T02:26:04.773Z,7.97
2018-05-18T02:28:33.093Z,8.23
2018-05-18T02:31:00.732Z,7.47
2018-05-18T02:33:28.323Z,7.60
2018-05-18T02:35:55.864Z,6.70
2018-05-18T02:38:24.174Z,7.07
2018-05-18T02:40:51.708Z,8.00
2018-05-18T02:43:19.256Z,6.87
2018-05-18T02:45:46.843Z,7.80
2018-05-18T02:48:14.404Z,7.40
2018-05-18T02:50:41.984Z,7.40
2018-05-18T02:53:09.568Z,7.63
2018-05-18T02:55:38.394Z,6.93
2018-05-18T02:58:05.940Z,6.47
2018-05-18T03:00:33.482Z,7.20
2018-05-18T03:03:01.048Z,7.50
2018-05-18T03:05:28.616Z,7.33
2018-05-18T03:07:56.951Z,7.23
2018-05-18T03:10:25.356Z,7.93
2018-05-18T03:12:53.648Z,6.90
2018-05-18T03:15:21.185Z,7.27
2018-05-18T03:17:49.489Z,7.33
2018-05-18T03:20:17.042Z,7.27
2018-05-18T03:22:44.584Z,7.23
2018-05-18T03:25:12.188Z,7.57
2018-05-18T03:27:39.716Z,7.10
2018-05-18T03:30:07.278Z,7.23
2018-05-18T03:32:34.844Z,7.90
2018-05-18T03:35:02.389Z,7.47
2018-05-18T03:37:29.994Z,6.90
2018-05-18T03:39:57.531Z,7.27
2018-05-18T03:42:25.055Z,7.03
2018-05-18T03:44:52.598Z,6.80
2018-05-18T03:47:20.195Z,7.60
2018-05-18T03:49:47.740Z,8.40
2018-05-18T03:52:15.293Z,7.67
2018-05-18T03:54:42.900Z,8.53
2018-05-18T03:57:10.515Z,8.40
2018-05-18T03:59:38.071Z,8.23
2018-05-18T04:02:17.570Z,8.90
2018-05-18T04:04:57.019Z,8.90
2018-05-18T04:07:37.364Z,8.90
2018-05-18T04:10:04.909Z,10.00
2018-05-18T04:12:32.510Z,9.00
2018-05-18T04:15:00.836Z,8.27
2018-05-18T04:17:28.399Z,8.63
2018-05-18T04:19:56.037Z,7.97
2018-05-18T04:22:24.246Z,7.33
2018-05-18T04:24:51.813Z,8.67
2018-05-18T04:27:19.356Z,7.63
2018-05-18T04:29:46.901Z,7.27
2018-05-18T04:32:14.477Z,8.57
2018-05-18T04:34:42.107Z,8.40
2018-05-18T04:37:09.662Z,8.57
2018-05-18T04:39:37.222Z,7.53
2018-05-18T04:42:04.780Z,7.90
2018-05-18T04:44:32.352Z,8.30
2018-05-18T04:46:59.891Z,7.83
2018-05-18T04:49:28.238Z,7.37
2018-05-18T04:51:56.550Z,6.83
2018-05-18T04:54:24.087Z,7.40
2018-05-18T04:56:51.637Z,7.80
2018-05-18T04:59:19.989Z,7.03
2018-05-18T05:01:47.610Z,6.80
2018-05-18T05:04:15.168Z,7.00
2018-05-18T05:06:42.834Z,6.50
2018-05-18T05:09:10.371Z,6.57
2018-05-18T05:11:37.897Z,7.47
2018-05-18T05:14:05.414Z,7.50
2018-05-18T05:16:32.956Z,7.63
2018-05-18T05:19:00.501Z,9.90
2018-05-18T05:21:28.026Z,10.00
2018-05-18T05:23:55.580Z,10.87
2018-05-18T05:26:23.136Z,10.80
2018-05-18T05:28:50.676Z,10.87
2018-05-18T05:31:18.240Z,11.33
2018-05-18T05:33:45.908Z,9.77
2018-05-18T05:36:13.577Z,11.23
2018-05-18T05:38:41.126Z,10.67
2018-05-18T05:41:08.670Z,11.73
2018-05-18T05:43:36.224Z,10.37
2018-05-18T05:46:03.777Z,10.93
2018-05-18T05:48:31.336Z,11.73
2018-05-18T05:50:58.877Z,11.70
2018-05-18T05:53:26.452Z,13.00
2018-05-18T05:55:53.994Z,13.40
2018-05-18T05:58:21.571Z,11.73
2018-05-18T06:00:49.229Z,12.80
2018-05-18T06:03:16.774Z,14.47
2018-05-18T06:05:44.324Z,15.00
2018-05-18T06:08:12.021Z,15.10
2018-05-18T06:10:39.565Z,14.43
2018-05-18T06:13:07.137Z,15.70
2018-05-18T06:15:34.724Z,15.47
2018-05-18T06:18:02.265Z,15.20
2018-05-18T06:20:29.806Z,14.30
2018-05-18T06:22:57.350Z,14.77
2018-05-18T06:25:24.896Z,14.67
2018-05-18T06:27:52.504Z,14.70
2018-05-18T06:30:20.055Z,16.40
2018-05-18T06:32:47.639Z,16.17
2018-05-18T06:35:15.291Z,14.83
2018-05-18T06:37:42.761Z,16.57
2018-05-18T06:40:11.109Z,15.90
2018-05-18T06:42:38.686Z,16.37
2018-05-18T06:45:06.256Z,16.20
2018-05-18T06:47:33.789Z,16.47
2018-05-18T06:50:01.472Z,16.87
2018-05-18T06:52:30.169Z,16.57
2018-05-18T06:54:57.682Z,16.03
2018-05-18T06:57:25.219Z,17.07
2018-05-18T06:59:52.800Z,15.50
2018-05-18T07:02:20.384Z,16.10
2018-05-18T07:04:47.957Z,16.17
2018-05-18T07:07:16.296Z,17.57
2018-05-18T07:09:43.856Z,16.67
2018-05-18T07:12:11.412Z,15.27
2018-05-18T07:14:38.970Z,15.87
2018-05-18T07:17:06.542Z,15.77
2018-05-18T07:19:34.132Z,16.33
2018-05-18T07:22:01.770Z,15.93
2018-05-18T07:24:29.327Z,16.63
2018-05-18T07:26:56.876Z,15.77
2018-05-18T07:29:24.414Z,14.63
2018-05-18T07:31:51.958Z,15.83
2018-05-18T07:34:19.495Z,16.90
2018-05-18T07:36:47.082Z,14.87
2018-05-18T07:39:14.636Z,15.93
2018-05-18T07:41:42.248Z,17.00
2018-05-18T07:44:09.845Z,15.20
2018-05-18T07:46:37.381Z,14.37
2018-05-18T07:49:04.918Z,16.63
2018-05-18T07:51:32.488Z,16.13
2018-05-18T07:54:00.052Z,16.37
2018-05-18T07:56:27.613Z,17.63
2018-05-18T07:58:55.923Z,16.70
2018-05-18T08:01:23.607Z,15.77
2018-05-18T08:03:51.069Z,17.30
2018-05-18T08:06:18.617Z,16.90
2018-05-18T08:08:46.181Z,16.70
2018-05-18T08:11:13.773Z,17.77
2018-05-18T08:13:41.303Z,16.43
2018-05-18T08:16:08.854Z,16.30
2018-05-18T08:18:36.412Z,16.67
2018-05-18T08:21:03.988Z,18.00
2018-05-18T08:23:41.280Z,16.87
2018-05-18T08:26:09.660Z,17.23
2018-05-18T08:28:49.205Z,16.63
2018-05-18T08:31:16.843Z,18.03
2018-05-18T08:33:44.388Z,16.47
2018-05-18T08:36:11.924Z,16.10
2018-05-18T08:38:39.469Z,16.80
2018-05-18T08:41:07.776Z,16.23
2018-05-18T08:43:35.321Z,15.53
2018-05-18T08:46:02.848Z,16.60
2018-05-18T08:48:30.417Z,15.80
2018-05-18T08:50:58.029Z,14.80
2018-05-18T08:53:25.605Z,16.10
2018-05-18T08:55:53.155Z,14.80
2018-05-18T08:58:20.753Z,16.00
2018-05-18T09:00:49.059Z,16.17
2018-05-18T09:03:16.593Z,13.30
2018-05-18T09:05:44.144Z,13.53
2018-05-18T09:08:12.461Z,14.00
2018-05-18T09:10:40.766Z,13.80
2018-05-18T09:13:08.336Z,13.87
2018-05-18T09:15:35.864Z,14.13
2018-05-18T09:18:03.441Z,14.70
2018-05-18T09:20:31.104Z,15.53
2018-05-18T09:22:58.659Z,15.63
2018-05-18T09:25:26.227Z,15.87
2018-05-18T09:27:53.777Z,15.67
2018-05-18T09:30:21.336Z,15.57
2018-05-18T09:32:48.904Z,16.63
2018-05-18T09:35:16.453Z,16.90
2018-05-18T09:37:44.036Z,15.73
2018-05-18T09:40:11.581Z,15.73
2018-05-18T09:42:39.130Z,16.20
2018-05-18T09:45:06.789Z,15.37
2018-05-18T09:47:34.247Z,15.40
2018-05-18T09:50:01.813Z,14.73
2018-05-18T09:52:29.357Z,15.10
2018-05-18T09:54:57.139Z,16.00
2018-05-18T09:57:24.448Z,15.63
2018-05-18T09:59:52.049Z,15.33
2018-05-18T10:02:19.590Z,16.00
2018-05-18T10:04:47.141Z,14.57
2018-05-18T10:07:14.709Z,16.03
2018-05-18T10:09:42.293Z,15.47
2018-05-18T10:12:09.857Z,14.87
2018-05-18T10:14:37.401Z,16.63
2018-05-18T10:17:04.958Z,14.80
2018-05-18T10:19:32.518Z,16.80
2018-05-18T10:22:00.085Z,15.00
2018-05-18T10:24:27.649Z,14.43
2018-05-18T10:26:55.263Z,15.20
2018-05-18T10:29:22.726Z,13.53
2018-05-18T10:31:50.260Z,15.03
2018-05-18T10:34:17.812Z,13.67
2018-05-18T10:36:45.373Z,15.23
2018-05-18T10:39:12.939Z,15.20
2018-05-18T10:41:40.598Z,15.17
2018-05-18T10:44:08.128Z,13.73
2018-05-18T10:46:36.448Z,13.07
2018-05-18T10:49:03.976Z,13.17
2018-05-18T10:51:31.530Z,15.23
2018-05-18T10:53:59.866Z,14.90
2018-05-18T10:56:27.426Z,14.00
2018-05-18T10:58:54.975Z,12.83
2018-05-18T11:01:22.517Z,13.33
2018-05-18T11:03:50.056Z,13.40
2018-05-18T11:06:17.604Z,13.23
2018-05-18T11:08:45.204Z,11.00
2018-05-18T11:11:12.758Z,12.00
2018-05-18T11:13:40.304Z,12.23
2018-05-18T11:16:07.874Z,12.30
2018-05-18T11:18:35.404Z,11.87
2018-05-18T11:21:02.973Z,12.97
2018-05-18T11:23:30.521Z,12.63
2018-05-18T11:25:58.065Z,12.50
2018-05-18T11:28:26.361Z,12.77
2018-05-18T11:30:55.033Z,11.87
2018-05-18T11:33:23.334Z,11.97
2018-05-18T11:35:50.874Z,12.13
2018-05-18T11:38:18.433Z,12.57
2018-05-18T11:40:45.986Z,12.80
2018-05-18T11:43:14.291Z,12.90
2018-05-18T11:45:41.839Z,11.73
2018-05-18T11:48:09.394Z,11.53
2018-05-18T11:50:36.929Z,12.80
2018-05-18T11:53:04.469Z,11.53
2018-05-18T11:55:32.009Z,13.43
2018-05-18T11:57:59.563Z,12.57
2018-05-18T12:00:27.104Z,13.57
2018-05-18T12:02:54.661Z,12.93
2018-05-18T12:05:22.189Z,11.13
2018-05-18T12:07:50.507Z,11.13
2018-05-18T12:10:18.053Z,10.97
2018-05-18T12:12:45.636Z,10.57
2018-05-18T12:15:13.193Z,11.40
2018-05-18T12:17:40.914Z,11.33
2018-05-18T12:20:08.464Z,11.93
2018-05-18T12:22:36.772Z,11.50
2018-05-18T12:25:04.317Z,10.50
2018-05-18T12:27:31.853Z,9.90
2018-05-18T12:30:00.157Z,10.90
2018-05-18T12:32:27.708Z,10.47
2018-05-18T12:34:55.282Z,10.33
2018-05-18T12:37:22.821Z,10.47
2018-05-18T12:39:50.406Z,9.90
2018-05-18T12:42:17.949Z,10.17
2018-05-18T12:44:45.631Z,9.50
2018-05-18T12:47:13.085Z,8.23
2018-05-18T12:49:40.632Z,10.50
2018-05-18T12:52:08.404Z,9.43
2018-05-18T12:54:35.938Z,10.87
2018-05-18T12:57:03.483Z,9.27
2018-05-18T12:59:31.842Z,10.93
2018-05-18T13:01:59.348Z,10.73
2018-05-18T13:04:26.913Z,9.83
2018-05-18T13:06:55.236Z,10.37
2018-05-18T13:09:22.777Z,10.73
2018-05-18T13:11:50.453Z,9.60
2018-05-18T13:14:17.984Z,9.87
2018-05-18T13:16:45.526Z,10.50
2018-05-18T13:19:13.075Z,11.63
2018-05-18T13:21:40.600Z,11.90
2018-05-18T13:24:08.918Z,11.53
2018-05-18T13:26:36.517Z,11.13
2018-05-18T13:29:04.069Z,11.80
2018-05-18T13:31:31.645Z,11.80
2018-05-18T13:33:59.191Z,11.80
2018-05-18T13:36:26.740Z,10.83
2018-05-18T13:38:54.381Z,10.60
2018-05-18T13:41:21.827Z,8.90
2018-05-18T13:43:49.413Z,9.03
2018-05-18T13:46:16.950Z,8.93
2018-05-18T13:48:44.505Z,9.37
2018-05-18T13:51:12.098Z,8.90
2018-05-18T13:53:40.032Z,8.13
2018-05-18T13:56:07.675Z,8.67
2018-05-18T13:58:35.257Z,8.70
2018-05-18T14:01:02.813Z,7.80
2018-05-18T14:03:31.130Z,8.43
2018-05-18T14:05:58.754Z,10.00
2018-05-18T14:08:26.298Z,9.23
2018-05-18T14:10:53.859Z,9.00
2018-05-18T14:13:21.402Z,8.23
2018-05-18T14:15:48.942Z,8.97
2018-05-18T14:18:16.496Z,6.80
2018-05-18T14:20:44.823Z,6.87
2018-05-18T14:23:12.358Z,6.83
2018-05-18T14:25:39.905Z,7.13
2018-05-18T14:28:07.432Z,7.23
2018-05-18T14:30:34.987Z,6.43
2018-05-18T14:33:02.518Z,6.53
2018-05-18T14:35:30.066Z,6.20
2018-05-18T14:37:57.627Z,6.23
2018-05-18T14:40:25.133Z,6.03
2018-05-18T14:42:52.695Z,5.20
2018-05-18T14:45:20.243Z,5.60
2018-05-18T14:47:47.772Z,5.90
2018-05-18T14:50:15.320Z,5.97
2018-05-18T14:52:42.864Z,5.43
2018-05-18T14:55:10.417Z,5.77
2018-05-18T14:57:37.969Z,6.00
2018-05-18T15:00:05.630Z,5.87
2018-05-18T15:02:33.168Z,5.60
2018-05-18T15:05:01.485Z,6.03
2018-05-18T15:07:29.041Z,5.53
2018-05-18T15:09:56.582Z,6.50
2018-05-18T15:12:24.117Z,5.80
2018-05-18T15:14:51.648Z,5.23
2018-05-18T15:17:19.213Z,5.70
2018-05-18T15:19:46.758Z,4.90
2018-05-18T15:22:14.347Z,5.90
2018-05-18T15:24:42.105Z,5.40
2018-05-18T15:27:09.681Z,5.20
2018-05-18T15:29:37.976Z,5.50
2018-05-18T15:32:05.537Z,5.40
2018-05-18T15:34:33.069Z,5.37
2018-05-18T15:37:01.424Z,4.80
2018-05-18T15:39:28.969Z,5.30
2018-05-18T15:41:57.304Z,5.60
2018-05-18T15:44:24.846Z,5.67
2018-05-18T15:46:53.198Z,5.33
2018-05-18T15:49:20.739Z,5.50
2018-05-18T15:51:48.268Z,4.70
2018-05-18T15:54:15.797Z,5.30
2018-05-18T15:56:44.119Z,5.83
2018-05-18T15:59:11.678Z,6.03
2018-05-18T16:01:39.249Z,5.33
2018-05-18T16:04:06.874Z,5.70
2018-05-18T16:06:34.396Z,5.77
2018-05-18T16:09:01.943Z,5.50
2018-05-18T16:11:29.472Z,5.30
2018-05-18T16:13:57.027Z,6.03
2018-05-18T16:16:24.554Z,6.03
2018-05-18T16:18:52.131Z,6.00
2018-05-18T16:21:19.689Z,5.83
2018-05-18T16:23:47.221Z,6.30
2018-05-18T16:26:15.527Z,5.83
2018-05-18T16:28:43.053Z,5.63
2018-05-18T16:31:10.596Z,6.57
2018-05-18T16:33:38.120Z,5.40
2018-05-18T16:36:06.138Z,6.13
2018-05-18T16:38:34.820Z,6.43
2018-05-18T16:41:03.117Z,6.80
2018-05-18T16:43:30.668Z,7.00
2018-05-18T16:45:58.203Z,6.33
2018-05-18T16:48:25.762Z,7.07
2018-05-18T16:50:53.290Z,7.43
2018-05-18T16:53:20.857Z,7.60
2018-05-18T16:55:48.542Z,6.97
2018-05-18T16:58:16.087Z,7.27
2018-05-18T17:00:43.613Z,7.90
2018-05-18T17:03:11.166Z,7.53
2018-05-18T17:05:38.693Z,7.50
2018-05-18T17:08:07.093Z,6.40
2018-05-18T17:10:34.577Z,5.80
2018-05-18T17:13:02.135Z,6.93
2018-05-18T17:15:29.684Z,6.80
2018-05-18T17:17:57.216Z,6.60
2018-05-18T17:20:24.777Z,7.13
2018-05-18T17:22:52.313Z,7.07
2018-05-18T17:25:19.975Z,7.20
2018-05-18T17:27:47.528Z,7.90
2018-05-18T17:30:15.140Z,7.63
2018-05-18T17:32:42.709Z,7.80
2018-05-18T17:35:10.272Z,7.40
2018-05-18T17:37:37.837Z,7.90
2018-05-18T17:40:05.725Z,8.07
2018-05-18T17:42:33.472Z,7.23
2018-05-18T17:45:01.787Z,8.63
2018-05-18T17:47:29.334Z,8.17
2018-05-18T17:49:56.927Z,9.13
2018-05-18T17:52:24.458Z,9.40
2018-05-18T17:54:52.789Z,10.43
2018-05-18T17:57:20.326Z,11.17
2018-05-18T17:59:47.909Z,10.13
2018-05-18T18:02:16.260Z,11.83
2018-05-18T18:04:43.814Z,10.77
2018-05-18T18:07:11.359Z,11.30
2018-05-18T18:09:38.917Z,12.07
2018-05-18T18:12:06.454Z,11.50
2018-05-18T18:14:34.021Z,11.23
2018-05-18T18:17:02.332Z,12.40
2018-05-18T18:19:30.060Z,12.40
2018-05-18T18:21:58.394Z,11.57
2018-05-18T18:24:25.936Z,11.90
2018-05-18T18:26:53.501Z,11.37
2018-05-18T18:29:21.056Z,11.30
2018-05-18T18:31:48.613Z,11.30
2018-05-18T18:34:16.221Z,11.67
2018-05-18T18:36:43.766Z,11.07
2018-05-18T18:39:11.301Z,11.37
2018-05-18T18:41:38.930Z,12.53
2018-05-18T18:44:06.499Z,12.17
2018-05-18T18:46:34.099Z,13.17
2018-05-18T18:49:01.694Z,12.70
2018-05-18T18:51:29.257Z,13.03
2018-05-18T18:53:56.820Z,13.63
2018-05-18T18:56:24.376Z,13.23
2018-05-18T18:58:51.943Z,12.50
2018-05-18T19:01:20.283Z,14.33
2018-05-18T19:03:47.823Z,13.37
2018-05-18T19:06:15.388Z,14.37
2018-05-18T19:08:42.955Z,14.53
2018-05-18T19:11:10.501Z,15.07
2018-05-18T19:13:38.068Z,14.33
2018-05-18T19:16:05.658Z,14.63
2018-05-18T19:18:33.229Z,14.93
2018-05-18T19:21:00.814Z,14.80
2018-05-18T19:23:28.364Z,15.83
2018-05-18T19:25:55.929Z,15.20
2018-05-18T19:28:24.245Z,16.30
2018-05-18T19:30:51.777Z,15.60
2018-05-18T19:33:19.321Z,17.20
2018-05-18T19:35:46.902Z,16.50
2018-05-18T19:38:14.484Z,15.97
2018-05-18T19:40:43.263Z,17.17
2018-05-18T19:43:10.805Z,17.17
2018-05-18T19:45:38.373Z,17.40
2018-05-18T19:48:05.934Z,16.37
2018-05-18T19:50:33.493Z,18.10
2018-05-18T19:53:01.047Z,17.67
2018-05-18T19:55:28.654Z,17.40
2018-05-18T19:57:56.265Z,17.47
2018-05-18T20:00:23.873Z,16.77
2018-05-18T20:02:51.432Z,17.20
2018-05-18T20:05:19.010Z,16.67
2018-05-18T20:07:46.585Z,17.93
2018-05-18T20:10:14.146Z,17.43
2018-05-18T20:12:41.681Z,18.97
2018-05-18T20:15:09.247Z,17.53
2018-05-18T20:17:36.788Z,18.73
2018-05-18T20:20:04.357Z,19.80
2018-05-18T20:22:31.926Z,18.53
2018-05-18T20:24:59.547Z,18.97
2018-05-18T20:27:27.045Z,18.30
2018-05-18T20:29:54.603Z,20.40
2018-05-18T20:32:22.164Z,19.67
2018-05-18T20:34:49.722Z,18.77
2018-05-18T20:37:17.251Z,19.23
2018-05-18T20:39:45.300Z,18.63
2018-05-18T20:42:12.888Z,18.40
2018-05-18T20:44:40.438Z,19.27
2018-05-18T20:47:08.778Z,19.43
2018-05-18T20:49:36.425Z,19.17
2018-05-18T20:52:03.973Z,19.97
2018-05-18T20:54:31.544Z,19.37
2018-05-18T20:56:59.080Z,20.10
2018-05-18T20:59:26.643Z,19.73
2018-05-18T21:01:54.205Z,20.20
2018-05-18T21:04:21.819Z,20.17
2018-05-18T21:06:50.630Z,19.43
2018-05-18T21:09:18.190Z,19.40
2018-05-18T21:11:45.724Z,19.70
2018-05-18T21:14:14.054Z,20.90
2018-05-18T21:16:41.700Z,20.40
2018-05-18T21:19:09.290Z,21.13
2018-05-18T21:21:37.652Z,20.00
2018-05-18T21:24:05.232Z,21.03
2018-05-18T21:26:32.776Z,20.80
2018-05-18T21:29:00.350Z,19.63
2018-05-18T21:31:27.905Z,20.37
2018-05-18T21:33:55.512Z,21.70
2018-05-18T21:36:23.136Z,22.73
2018-05-18T21:38:50.725Z,20.07
2018-05-18T21:41:19.064Z,21.87
2018-05-18T21:43:46.636Z,20.43
2018-05-18T21:46:14.226Z,20.77
2018-05-18T21:48:41.854Z,21.87
2018-05-18T21:51:09.401Z,21.90
2018-05-18T21:53:36.996Z,22.33
2018-05-18T21:56:04.557Z,22.37
2018-05-18T21:58:32.167Z,22.27
2018-05-18T22:01:00.432Z,21.47
2018-05-18T22:03:28.005Z,22.47
2018-05-18T22:05:55.558Z,22.60
2018-05-18T22:08:23.125Z,21.10
2018-05-18T22:10:50.676Z,21.67
2018-05-18T22:13:18.244Z,21.93
2018-05-18T22:15:45.823Z,21.97
2018-05-18T22:18:13.445Z,22.23
2018-05-18T22:20:40.991Z,22.50
2018-05-18T22:23:08.655Z,21.33
2018-05-18T22:25:36.194Z,22.47
2018-05-18T22:28:03.787Z,21.03
2018-05-18T22:30:31.346Z,22.37
2018-05-18T22:32:58.924Z,20.80
2018-05-18T22:35:26.493Z,21.33
2018-05-18T22:37:54.104Z,21.90
2018-05-18T22:40:21.663Z,21.60
2018-05-18T22:42:49.236Z,21.37
2018-05-18T22:45:16.780Z,20.73
2018-05-18T22:47:44.363Z,20.10
2018-05-18T22:50:11.898Z,21.27
2018-05-18T22:52:40.221Z,20.83
2018-05-18T22:55:07.770Z,20.90
2018-05-18T22:57:35.340Z,20.90
2018-05-18T23:00:02.895Z,20.40
2018-05-18T23:02:30.444Z,20.77
2018-05-18T23:04:58.005Z,20.53
2018-05-18T23:07:25.570Z,22.43
2018-05-18T23:09:53.133Z,22.03
2018-05-18T23:12:20.685Z,20.87
2018-05-18T23:14:48.221Z,22.37
2018-05-18T23:17:15.769Z,21.70
2018-05-18T23:19:43.333Z,21.07
2018-05-18T23:22:11.454Z,21.67
2018-05-18T23:24:39.032Z,23.63
2018-05-18T23:27:06.653Z,21.97
2018-05-18T23:29:34.216Z,21.37
2018-05-18T23:32:01.771Z,20.93
2018-05-18T23:34:29.327Z,21.87
2018-05-18T23:36:56.879Z,20.70
2018-05-18T23:39:24.432Z,22.80
2018-05-18T23:41:51.988Z,22.60
2018-05-18T23:44:19.562Z,23.23
2018-05-18T23:46:47.099Z,22.37
2018-05-18T23:49:14.651Z,20.40
2018-05-18T23:51:42.203Z,21.70
2018-05-18T23:54:09.795Z,21.70
2018-05-18T23:56:37.293Z,21.30
2018-05-18T23:59:04.881Z,20.90
